Terminal Aerodrome Forecast
Issued by NWS Charleston, WV

Home | Current Version | Previous Version | Text Only | Print | Product List | Glossary On
Versions: 1 2 3 4 5 6 7 8 9 10 11 12 13 14 15 16 17 18 19 20 21 22
000
FTUS41 KRLX 300238 AAA
TAFEKN
TAF AMD
KEKN 300238Z 3003/3024 00000KT P6SM SCT040
     FM300400 00000KT 6SM BR SCT040
     FM300500 00000KT 4SM BR SCT040
     FM300600 00000KT 1SM BR SCT001 SCT040
     FM301100 00000KT 2SM BR SCT001 BKN040
     FM301200 00000KT 4SM BR BKN040
     FM301300 00000KT P6SM BKN040
     FM302200 00000KT P6SM VCTS BKN060CB=

USA.gov is the U.S. government's official web portal to all federal, state and local government web resources and services.